Time;durP1;ratioP1;P1;durP2;ratioP2;P2;SDS_P1;SDS_P2;PMS_P1;PMS_P2;Temp;Humidity;BMP_temperature;BMP_pressure;BME280_temperature;BME280_humidity;BME280_pressure;Samples;Min_cycle;Max_cycle;Signal;HPM_P1;HPM_P2
2021/08/21 00:01:06;;;;;;;12.90;9.02;;;16.70;97.20;;;;;;5078910;28;20106;-81
2021/08/21 00:03:32;;;;;;;12.48;9.00;;;16.60;97.20;;;;;;5078477;28;20036;-82
2021/08/21 00:05:58;;;;;;;11.52;9.60;;;16.60;97.20;;;;;;5078609;28;20032;-82
2021/08/21 00:08:23;;;;;;;13.07;9.80;;;16.60;97.20;;;;;;5078922;28;20579;-81
2021/08/21 00:10:49;;;;;;;13.63;9.25;;;16.60;97.30;;;;;;5100809;28;20074;-82
2021/08/21 00:13:14;;;;;;;11.73;9.73;;;16.60;97.30;;;;;;5099510;28;20043;-81
2021/08/21 00:15:40;;;;;;;14.05;10.55;;;16.60;97.60;;;;;;5099118;28;20032;-81
2021/08/21 00:18:05;;;;;;;11.55;9.07;;;16.60;97.40;;;;;;5098673;28;20044;-81
2021/08/21 00:20:31;;;;;;;12.25;9.30;;;16.50;97.50;;;;;;5099261;28;20036;-82
2021/08/21 00:22:57;;;;;;;13.70;9.80;;;16.50;97.50;;;;;;5099014;28;20196;-82
2021/08/21 00:25:22;;;;;;;13.40;10.13;;;16.50;97.60;;;;;;5098985;28;20028;-82
2021/08/21 00:27:48;;;;;;;16.38;11.05;;;16.50;97.70;;;;;;5097502;28;20665;-83
2021/08/21 00:30:14;;;;;;;13.02;10.00;;;16.40;97.70;;;;;;5098346;28;20524;-81
2021/08/21 00:32:40;;;;;;;12.93;9.43;;;16.40;97.70;;;;;;5098805;28;20027;-81
2021/08/21 00:35:07;;;;;;;12.77;9.70;;;16.40;97.70;;;;;;5097803;28;20123;-81
2021/08/21 00:37:32;;;;;;;14.73;9.80;;;16.40;97.80;;;;;;5097401;28;20400;-81
2021/08/21 00:39:58;;;;;;;12.60;9.70;;;16.40;97.80;;;;;;5097663;28;20130;-81
2021/08/21 00:42:23;;;;;;;12.90;9.07;;;16.30;97.80;;;;;;5098544;28;20051;-81
2021/08/21 00:44:49;;;;;;;12.90;9.80;;;16.30;97.80;;;;;;5098687;28;20040;-81
2021/08/21 00:47:17;;;;;;;13.98;10.43;;;16.30;97.80;;;;;;5099072;28;20093;-81
2021/08/21 00:49:46;;;;;;;13.63;10.52;;;16.20;97.80;;;;;;5097462;28;20040;-81
2021/08/21 00:52:15;;;;;;;12.32;9.40;;;16.20;97.90;;;;;;5097308;28;20390;-82
2021/08/21 00:54:41;;;;;;;12.98;10.27;;;16.10;98.00;;;;;;5097681;28;20043;-82
2021/08/21 00:57:08;;;;;;;13.27;10.32;;;16.10;98.10;;;;;;5098338;28;20044;-82
2021/08/21 00:59:37;;;;;;;13.38;10.75;;;16.10;98.20;;;;;;5097521;28;20048;-81
2021/08/21 01:02:07;;;;;;;14.38;10.07;;;16.00;98.30;;;;;;5097352;28;20044;-81
2021/08/21 01:04:35;;;;;;;13.88;10.35;;;16.00;98.30;;;;;;5097102;28;20381;-82
2021/08/21 01:07:20;;;;;;;11.55;9.55;;;16.00;98.30;;;;;;5097213;28;20058;-81
2021/08/21 01:09:46;;;;;;;12.18;9.70;;;16.00;98.30;;;;;;5097904;28;20063;-81
2021/08/21 01:12:15;;;;;;;14.52;10.63;;;15.90;98.30;;;;;;5098140;28;20098;-82
2021/08/21 01:14:42;;;;;;;13.13;10.48;;;15.90;98.30;;;;;;5097025;28;20043;-81
2021/08/21 01:17:08;;;;;;;13.85;9.80;;;15.90;98.30;;;;;;5097975;28;20042;-81
2021/08/21 01:19:38;;;;;;;12.63;10.27;;;15.90;98.40;;;;;;5097427;28;20316;-81
2021/08/21 01:22:05;;;;;;;13.10;10.52;;;15.90;98.40;;;;;;5098094;28;20067;-81
2021/08/21 01:24:32;;;;;;;15.50;10.98;;;15.90;98.50;;;;;;5096963;28;20036;-82
2021/08/21 01:26:57;;;;;;;16.55;11.20;;;15.80;98.50;;;;;;5097099;28;20040;-81
2021/08/21 01:29:24;;;;;;;12.27;9.45;;;15.80;98.60;;;;;;5097483;28;20039;-81
2021/08/21 01:31:50;;;;;;;12.68;10.10;;;15.80;98.60;;;;;;5096974;28;20051;-81
2021/08/21 01:34:17;;;;;;;14.15;10.32;;;15.80;98.70;;;;;;5097754;28;20032;-82
2021/08/21 01:36:46;;;;;;;14.60;10.82;;;15.70;98.70;;;;;;5097479;28;20044;-83
2021/08/21 01:39:12;;;;;;;13.18;9.50;;;15.70;98.70;;;;;;5097979;28;20065;-82
2021/08/21 01:41:40;;;;;;;13.32;10.32;;;15.70;98.80;;;;;;5097387;28;20055;-81
2021/08/21 01:44:13;;;;;;;13.32;10.88;;;15.70;98.80;;;;;;5097253;28;20066;-82
2021/08/21 01:46:38;;;;;;;12.95;10.18;;;15.70;98.80;;;;;;5096409;28;20054;-82
2021/08/21 01:49:11;;;;;;;14.85;10.00;;;15.70;98.80;;;;;;5096735;28;20036;-81
2021/08/21 01:51:41;;;;;;;;;;;15.70;98.80;;;;;;5097467;28;20470;-81
2021/08/21 01:54:06;;;;;;;11.85;10.05;;;15.60;98.90;;;;;;5097509;28;19922;-82
2021/08/21 01:56:42;;;;;;;15.73;11.20;;;15.60;99.00;;;;;;5096558;28;20127;-82
2021/08/21 01:59:07;;;;;;;12.05;9.60;;;15.60;99.10;;;;;;5095923;28;20051;-82
2021/08/21 02:01:33;;;;;;;14.95;10.30;;;15.60;99.10;;;;;;5097032;28;20047;-81
2021/08/21 02:03:59;;;;;;;13.10;10.35;;;15.50;99.20;;;;;;5097060;28;20086;-81
2021/08/21 02:06:24;;;;;;;15.30;10.35;;;15.50;99.20;;;;;;5108365;28;20078;-81
2021/08/21 02:08:50;;;;;;;12.73;9.77;;;15.50;99.30;;;;;;5116070;28;20051;-82
2021/08/21 02:11:15;;;;;;;13.55;10.80;;;15.60;99.30;;;;;;5117221;28;20593;-81
2021/08/21 02:13:41;;;;;;;14.63;10.43;;;15.60;99.30;;;;;;5116931;28;20035;-81
2021/08/21 02:16:06;;;;;;;13.95;10.05;;;15.60;99.30;;;;;;5116957;28;20039;-82
2021/08/21 02:18:32;;;;;;;15.85;9.48;;;15.60;99.30;;;;;;5117144;28;20039;-82
2021/08/21 02:20:57;;;;;;;14.05;10.60;;;15.60;99.20;;;;;;5116796;28;20039;-81
2021/08/21 02:23:23;;;;;;;11.93;10.27;;;15.60;99.20;;;;;;5116671;28;20100;-82
2021/08/21 02:25:55;;;;;;;11.57;9.07;;;15.60;99.20;;;;;;5116747;28;20035;-81
2021/08/21 02:28:21;;;;;;;12.02;9.20;;;15.60;99.10;;;;;;5117124;28;20027;-81
2021/08/21 02:30:46;;;;;;;14.07;10.07;;;15.60;99.10;;;;;;5116208;28;20027;-81
2021/08/21 02:33:12;;;;;;;11.07;9.32;;;15.60;99.00;;;;;;5116031;28;20290;-81
2021/08/21 02:35:39;;;;;;;9.77;8.43;;;15.60;99.00;;;;;;5116352;28;20051;-81
2021/08/21 02:38:04;;;;;;;13.65;9.68;;;15.70;99.10;;;;;;5116782;28;20341;-82
2021/08/21 02:40:30;;;;;;;11.50;8.80;;;15.70;99.10;;;;;;5116801;28;20168;-81
2021/08/21 02:42:56;;;;;;;11.60;8.88;;;15.70;99.10;;;;;;5116184;28;20031;-81
2021/08/21 02:45:22;;;;;;;15.65;9.25;;;15.70;99.10;;;;;;5116881;28;20541;-82
2021/08/21 02:47:47;;;;;;;14.48;9.95;;;15.60;99.00;;;;;;5115993;28;20411;-82
2021/08/21 02:50:13;;;;;;;15.90;9.63;;;15.60;99.00;;;;;;5115760;28;20069;-82
2021/08/21 02:52:38;;;;;;;11.85;8.70;;;15.60;99.00;;;;;;5116784;28;20335;-81
2021/08/21 02:55:04;;;;;;;11.80;9.00;;;15.60;99.00;;;;;;5132945;27;20403;-82
2021/08/21 02:57:30;;;;;;;11.60;8.80;;;15.60;99.00;;;;;;5116640;28;20032;-82
2021/08/21 02:59:56;;;;;;;12.85;9.25;;;15.60;98.90;;;;;;5116917;28;20055;-81
2021/08/21 03:02:21;;;;;;;12.75;9.63;;;15.60;99.00;;;;;;5120103;28;20050;-81
2021/08/21 03:04:47;;;;;;;13.60;8.93;;;15.60;99.00;;;;;;5120889;28;20051;-82
2021/08/21 03:07:12;;;;;;;9.48;8.27;;;15.60;99.00;;;;;;5120768;28;20130;-81
2021/08/21 03:09:38;;;;;;;11.15;9.00;;;15.60;99.00;;;;;;5120703;28;20035;-81
2021/08/21 03:12:03;;;;;;;10.98;9.07;;;15.50;98.90;;;;;;5119762;28;20032;-81
2021/08/21 03:14:29;;;;;;;10.38;8.55;;;15.50;98.90;;;;;;5120885;28;20058;-81
2021/08/21 03:16:55;;;;;;;11.10;8.43;;;15.50;98.90;;;;;;5120117;28;20070;-82
2021/08/21 03:19:20;;;;;;;11.77;8.57;;;15.50;99.00;;;;;;5119939;28;20286;-82
2021/08/21 03:21:46;;;;;;;12.13;9.07;;;15.50;99.00;;;;;;5136286;27;20044;-81
2021/08/21 03:24:11;;;;;;;12.38;8.60;;;15.40;99.00;;;;;;5119428;28;20035;-81
2021/08/21 03:26:37;;;;;;;10.85;8.70;;;15.40;99.00;;;;;;5119132;28;20130;-81
2021/08/21 03:29:03;;;;;;;11.10;8.43;;;15.40;99.10;;;;;;5121275;28;20253;-81
2021/08/21 03:31:28;;;;;;;11.05;9.20;;;15.40;99.10;;;;;;5123316;28;20038;-82
2021/08/21 03:33:54;;;;;;;13.23;8.30;;;15.30;99.10;;;;;;5122043;28;20031;-81
2021/08/21 03:36:19;;;;;;;12.32;8.50;;;15.30;99.10;;;;;;5119430;28;20104;-82
2021/08/21 03:38:45;;;;;;;8.80;7.53;;;15.30;99.10;;;;;;5119383;28;20143;-81
2021/08/21 03:41:10;;;;;;;14.02;8.38;;;15.30;99.10;;;;;;5120092;28;20039;-82
2021/08/21 03:43:36;;;;;;;9.77;8.10;;;15.30;99.20;;;;;;5119167;28;20120;-81
2021/08/21 03:46:02;;;;;;;10.23;7.57;;;15.30;99.20;;;;;;5119277;28;20036;-82
2021/08/21 03:48:27;;;;;;;11.50;8.15;;;15.20;99.20;;;;;;5119938;28;20027;-82
2021/08/21 03:50:53;;;;;;;13.63;7.88;;;15.20;99.20;;;;;;5118668;28;20044;-81
2021/08/21 03:53:19;;;;;;;11.02;8.32;;;15.20;99.20;;;;;;5119664;28;20118;-82
2021/08/21 03:55:45;;;;;;;11.73;8.73;;;15.20;99.20;;;;;;5118596;28;20370;-82
2021/08/21 03:58:10;;;;;;;11.13;8.52;;;15.10;99.10;;;;;;5119491;28;20100;-82
2021/08/21 04:00:36;;;;;;;11.60;7.88;;;15.10;99.20;;;;;;5135506;27;20047;-82
2021/08/21 04:03:01;;;;;;;12.93;8.77;;;15.10;99.20;;;;;;5116190;28;20118;-81
2021/08/21 04:05:29;;;;;;;15.32;8.98;;;15.10;99.10;;;;;;5119220;28;20035;-82
2021/08/21 04:07:54;;;;;;;11.63;9.15;;;15.10;99.20;;;;;;5118405;28;20387;-81
2021/08/21 04:10:20;;;;;;;12.18;8.88;;;15.00;99.20;;;;;;5135799;27;20038;-82
2021/08/21 04:12:45;;;;;;;12.10;8.93;;;15.00;99.20;;;;;;5117846;28;20416;-84
2021/08/21 04:15:11;;;;;;;13.05;8.95;;;15.00;99.20;;;;;;5135433;27;20296;-81
2021/08/21 04:17:37;;;;;;;13.07;9.32;;;15.00;99.20;;;;;;5118445;28;20126;-81
2021/08/21 04:20:04;;;;;;;13.73;9.40;;;15.00;99.20;;;;;;5119103;28;20047;-84
2021/08/21 04:22:30;;;;;;;14.70;9.68;;;14.90;99.10;;;;;;5118061;28;20385;-84
2021/08/21 04:24:56;;;;;;;12.88;9.68;;;14.90;99.20;;;;;;5118285;28;20051;-81
2021/08/21 04:27:21;;;;;;;11.68;9.27;;;14.80;99.20;;;;;;5135169;27;20036;-81
2021/08/21 04:29:47;;;;;;;11.55;8.70;;;14.90;99.30;;;;;;5118825;28;20047;-84
2021/08/21 04:32:12;;;;;;;16.20;10.52;;;14.80;99.40;;;;;;5118905;28;20035;-84
2021/08/21 04:34:38;;;;;;;14.80;9.27;;;14.80;99.40;;;;;;5118333;28;20324;-84
2021/08/21 04:37:04;;;;;;;12.23;8.82;;;14.90;99.60;;;;;;5118882;28;20051;-83
2021/08/21 04:39:31;;;;;;;11.82;8.65;;;14.80;99.60;;;;;;5117898;28;20042;-81
2021/08/21 04:41:56;;;;;;;12.13;8.75;;;14.80;99.70;;;;;;5117966;28;20053;-81
2021/08/21 04:44:22;;;;;;;13.20;10.20;;;14.90;99.70;;;;;;5118809;28;20031;-84
2021/08/21 04:46:47;;;;;;;15.75;11.32;;;14.90;99.80;;;;;;5117518;28;20075;-83
2021/08/21 04:49:13;;;;;;;17.65;11.63;;;15.00;99.90;;;;;;5118265;28;20038;-82
2021/08/21 04:51:38;;;;;;;20.05;12.05;;;15.00;99.90;;;;;;5118488;28;20043;-81
2021/08/21 04:54:04;;;;;;;17.65;12.65;;;15.10;99.90;;;;;;5117881;28;20032;-81
2021/08/21 04:56:29;;;;;;;17.58;12.57;;;15.20;99.90;;;;;;5118740;28;20044;-81
2021/08/21 04:58:55;;;;;;;15.95;12.18;;;15.20;99.90;;;;;;5117847;28;20035;-82
2021/08/21 05:01:21;;;;;;;15.32;11.95;;;15.30;99.90;;;;;;5118619;28;20067;-82
2021/08/21 05:03:47;;;;;;;15.18;10.52;;;15.30;99.90;;;;;;5117509;28;20039;-81
2021/08/21 05:06:12;;;;;;;13.77;10.05;;;15.40;99.80;;;;;;5118936;28;20412;-81
2021/08/21 05:08:38;;;;;;;17.42;10.52;;;15.40;99.70;;;;;;5118131;28;20143;-85
2021/08/21 05:11:03;;;;;;;14.95;9.45;;;15.50;99.60;;;;;;5117591;28;20051;-82
2021/08/21 05:13:29;;;;;;;12.43;9.90;;;15.50;99.60;;;;;;5134400;27;20065;-84
2021/08/21 05:15:54;;;;;;;16.30;10.10;;;15.60;99.50;;;;;;5117397;28;20036;-82
2021/08/21 05:18:27;;;;;;;15.48;9.20;;;15.60;99.40;;;;;;5117450;28;20032;-82
2021/08/21 05:20:54;;;;;;;13.52;9.35;;;15.60;99.30;;;;;;5134041;27;20036;-81
2021/08/21 05:23:20;;;;;;;14.68;9.32;;;15.70;99.30;;;;;;5118117;28;20408;-82
2021/08/21 05:25:47;;;;;;;11.73;8.52;;;15.70;99.20;;;;;;5117584;28;20053;-82
2021/08/21 05:28:15;;;;;;;11.07;8.48;;;15.80;99.20;;;;;;5117019;28;20070;-82
2021/08/21 05:30:41;;;;;;;10.18;8.43;;;15.80;99.40;;;;;;5116981;28;20031;-82
2021/08/21 05:33:11;;;;;;;11.73;8.02;;;15.80;99.10;;;;;;5117840;28;20096;-82
2021/08/21 05:35:37;;;;;;;12.65;8.23;;;15.90;99.00;;;;;;5117478;28;20036;-81
2021/08/21 05:38:05;;;;;;;11.65;7.85;;;16.00;98.90;;;;;;5117724;28;20043;-82
2021/08/21 05:40:32;;;;;;;11.57;8.38;;;16.00;98.80;;;;;;5117233;28;20032;-82
2021/08/21 05:42:58;;;;;;;17.35;8.68;;;16.10;99.00;;;;;;5117541;28;20674;-82
2021/08/21 05:45:23;;;;;;;10.27;8.70;;;16.10;98.60;;;;;;5117468;28;20050;-82
2021/08/21 05:47:49;;;;;;;12.18;8.73;;;16.20;98.60;;;;;;5117136;28;20110;-81
2021/08/21 05:50:14;;;;;;;10.85;7.97;;;16.30;98.60;;;;;;5117581;28;20108;-82
2021/08/21 05:52:40;;;;;;;10.65;8.13;;;16.30;98.40;;;;;;5117069;28;20078;-82
2021/08/21 05:55:06;;;;;;;12.45;8.25;;;16.30;98.30;;;;;;5116939;28;20036;-82
2021/08/21 05:57:31;;;;;;;9.00;7.15;;;16.40;98.30;;;;;;5116667;28;20039;-82
2021/08/21 05:59:57;;;;;;;9.27;7.40;;;16.50;98.20;;;;;;5116661;28;20042;-82
2021/08/21 06:02:25;;;;;;;9.60;8.02;;;16.50;98.20;;;;;;5133252;27;20126;-82
2021/08/21 06:04:51;;;;;;;10.32;7.53;;;16.60;98.10;;;;;;5115475;27;20035;-83
2021/08/21 06:07:16;;;;;;;9.55;7.70;;;16.70;98.00;;;;;;5116757;28;20046;-82
2021/08/21 06:09:41;;;;;;;12.43;7.85;;;16.70;97.90;;;;;;5133481;27;20281;-82
2021/08/21 06:12:07;;;;;;;9.30;7.00;;;16.80;97.70;;;;;;5116631;28;20169;-82
2021/08/21 06:14:37;;;;;;;7.93;6.50;;;16.90;97.90;;;;;;5116035;28;20048;-81
2021/08/21 06:17:04;;;;;;;8.07;7.00;;;17.00;97.60;;;;;;5133727;27;20124;-82
2021/08/21 06:19:29;;;;;;;8.82;6.47;;;17.00;97.40;;;;;;5116145;28;20065;-82
2021/08/21 06:21:55;;;;;;;9.02;7.18;;;17.10;97.20;;;;;;5115577;28;20448;-81
2021/08/21 06:24:20;;;;;;;7.63;6.35;;;17.20;97.10;;;;;;5116560;28;20128;-82
2021/08/21 06:26:45;;;;;;;14.63;7.60;;;17.30;96.90;;;;;;5115917;28;20054;-82
2021/08/21 06:29:11;;;;;;;7.10;5.95;;;17.30;96.70;;;;;;5116834;28;20041;-82
2021/08/21 06:31:36;;;;;;;9.65;6.13;;;17.40;96.60;;;;;;5116833;28;20116;-81
2021/08/21 06:34:02;;;;;;;10.25;6.45;;;17.50;96.60;;;;;;5133414;27;20050;-82
2021/08/21 06:36:27;;;;;;;8.07;6.53;;;17.60;96.50;;;;;;5116584;28;20640;-81
2021/08/21 06:38:53;;;;;;;9.68;6.93;;;17.70;96.20;;;;;;5116863;28;20043;-81
2021/08/21 06:41:18;;;;;;;9.73;6.60;;;17.80;96.00;;;;;;5116615;28;20036;-82
2021/08/21 06:43:44;;;;;;;6.75;5.78;;;17.90;95.70;;;;;;5115706;28;20093;-82
2021/08/21 06:46:09;;;;;;;9.00;6.03;;;18.00;95.70;;;;;;5116560;28;20036;-82
2021/08/21 06:48:35;;;;;;;8.23;5.72;;;18.10;95.70;;;;;;5116484;28;20425;-82
2021/08/21 06:51:00;;;;;;;10.82;5.97;;;18.20;95.70;;;;;;5116770;28;20041;-82
2021/08/21 06:53:29;;;;;;;10.48;5.85;;;18.30;95.50;;;;;;5116852;28;20046;-82
2021/08/21 06:55:54;;;;;;;8.00;5.72;;;18.40;95.30;;;;;;5116067;28;20043;-82
2021/08/21 06:58:20;;;;;;;10.30;5.50;;;18.50;95.10;;;;;;5116707;28;20032;-82
2021/08/21 07:00:45;;;;;;;7.25;5.70;;;18.60;94.90;;;;;;5132684;27;20040;-83
2021/08/21 07:03:11;;;;;;;7.30;5.93;;;18.70;94.60;;;;;;5116397;28;20047;-82
2021/08/21 07:05:37;;;;;;;8.48;6.00;;;18.80;94.40;;;;;;5116509;28;20047;-82
2021/08/21 07:08:02;;;;;;;11.32;5.35;;;18.90;94.40;;;;;;5115664;28;20139;-82
2021/08/21 07:10:28;;;;;;;6.82;6.07;;;19.00;94.30;;;;;;5116868;28;20306;-82
2021/08/21 07:12:53;;;;;;;6.28;5.15;;;19.10;94.10;;;;;;5116420;28;20462;-82
2021/08/21 07:15:19;;;;;;;8.25;4.90;;;19.20;94.00;;;;;;5115439;28;20035;-83
2021/08/21 07:17:45;;;;;;;7.63;5.70;;;19.30;94.00;;;;;;5115897;28;20078;-82
2021/08/21 07:20:11;;;;;;;8.18;5.53;;;19.30;93.60;;;;;;5115743;28;20297;-82
2021/08/21 07:22:36;;;;;;;5.95;4.53;;;19.40;93.70;;;;;;5117554;28;20066;-82
2021/08/21 07:25:03;;;;;;;6.15;4.68;;;19.50;93.00;;;;;;5120400;28;20043;-82
2021/08/21 07:27:29;;;;;;;6.60;4.65;;;19.60;93.20;;;;;;5119329;28;20043;-83
2021/08/21 07:29:54;;;;;;;5.35;4.50;;;19.70;92.80;;;;;;5115692;28;20031;-82
2021/08/21 07:32:20;;;;;;;7.32;4.78;;;19.80;92.70;;;;;;5115643;28;20055;-82
2021/08/21 07:34:45;;;;;;;6.25;4.18;;;19.90;92.30;;;;;;5116221;28;20082;-82
2021/08/21 07:37:11;;;;;;;5.22;4.15;;;20.00;92.20;;;;;;5116588;28;20261;-82
2021/08/21 07:39:36;;;;;;;6.05;4.57;;;20.10;91.90;;;;;;5115190;28;20039;-82
2021/08/21 07:42:02;;;;;;;7.75;4.50;;;20.20;92.10;;;;;;5115979;28;20385;-82
2021/08/21 07:44:27;;;;;;;4.70;3.85;;;20.30;92.10;;;;;;5115099;28;20039;-82
2021/08/21 07:46:53;;;;;;;5.32;4.45;;;20.30;91.80;;;;;;5118144;28;20421;-83
2021/08/21 07:49:18;;;;;;;6.65;4.40;;;20.40;92.00;;;;;;5136149;27;20040;-82
2021/08/21 07:51:43;;;;;;;5.78;3.67;;;20.50;91.80;;;;;;5119848;28;20039;-82
2021/08/21 07:54:09;;;;;;;4.63;4.03;;;20.60;91.50;;;;;;5120075;28;20062;-82
2021/08/21 07:56:34;;;;;;;5.05;3.80;;;20.70;91.50;;;;;;5119563;28;20089;-83
2021/08/21 07:59:00;;;;;;;5.65;3.72;;;20.80;91.20;;;;;;5119112;28;20032;-82
2021/08/21 08:01:25;;;;;;;7.05;4.28;;;20.90;90.70;;;;;;5112914;28;20055;-82
2021/08/21 08:03:51;;;;;;;4.85;3.70;;;21.00;90.90;;;;;;5098480;28;20348;-83
2021/08/21 08:06:16;;;;;;;4.25;3.38;;;21.10;90.60;;;;;;5098822;28;20340;-82
2021/08/21 08:08:42;;;;;;;4.40;3.30;;;21.20;90.30;;;;;;5099252;28;20032;-82
2021/08/21 08:11:07;;;;;;;3.72;3.08;;;21.30;90.10;;;;;;5098113;28;20082;-82
2021/08/21 08:13:33;;;;;;;3.60;3.03;;;21.40;89.10;;;;;;5110953;28;20039;-82
2021/08/21 08:15:59;;;;;;;4.18;3.25;;;21.50;89.50;;;;;;5118440;28;20051;-82
2021/08/21 08:18:25;;;;;;;4.00;3.00;;;21.60;89.80;;;;;;5118984;28;20118;-82
2021/08/21 08:20:51;;;;;;;4.13;3.72;;;21.80;90.10;;;;;;5119410;28;20165;-83
2021/08/21 08:23:16;;;;;;;3.83;3.42;;;21.90;87.20;;;;;;5118312;28;20043;-82
2021/08/21 08:25:42;;;;;;;5.03;3.08;;;22.00;86.70;;;;;;5119168;28;20096;-83
2021/08/21 08:28:07;;;;;;;4.75;3.40;;;22.20;87.90;;;;;;5119104;28;20490;-82
2021/08/21 08:30:33;;;;;;;4.82;3.42;;;22.30;86.10;;;;;;5119278;28;20103;-83
2021/08/21 08:32:58;;;;;;;5.78;2.90;;;22.40;85.10;;;;;;5118057;28;20390;-83
2021/08/21 08:35:24;;;;;;;3.50;3.20;;;22.50;84.00;;;;;;5119098;28;20065;-83
2021/08/21 08:37:50;;;;;;;4.82;3.03;;;22.60;84.20;;;;;;5118793;28;20031;-82
2021/08/21 08:40:15;;;;;;;3.50;2.78;;;22.60;84.20;;;;;;5118974;28;20040;-82
2021/08/21 08:42:42;;;;;;;4.60;2.63;;;22.80;84.70;;;;;;5117945;28;20070;-83
2021/08/21 08:45:09;;;;;;;4.43;2.60;;;22.80;82.10;;;;;;5117813;28;20043;-82
2021/08/21 08:47:36;;;;;;;4.57;2.67;;;22.90;82.30;;;;;;5118716;28;20386;-82
2021/08/21 08:50:04;;;;;;;5.18;2.85;;;23.00;83.20;;;;;;5117813;28;20393;-82
2021/08/21 08:52:30;;;;;;;3.05;2.40;;;23.10;85.60;;;;;;5118578;28;20050;-82
2021/08/21 08:54:56;;;;;;;3.22;2.78;;;23.30;82.40;;;;;;5120059;28;20032;-83
2021/08/21 08:57:42;;;;;;;2.78;2.30;;;23.40;79.00;;;;;;5118453;28;20042;-82
2021/08/21 09:00:13;;;;;;;5.05;2.47;;;23.50;80.50;;;;;;5118553;28;20043;-83
2021/08/21 09:02:44;;;;;;;3.40;2.10;;;23.60;79.10;;;;;;5117123;28;20040;-83
2021/08/21 09:05:12;;;;;;;4.22;2.25;;;23.70;77.90;;;;;;5117855;28;20046;-83
2021/08/21 09:07:51;;;;;;;3.75;2.10;;;23.80;79.30;;;;;;5118388;28;20057;-83
2021/08/21 09:10:26;;;;;;;4.00;2.10;;;23.90;76.80;;;;;;5118381;28;20409;-83
2021/08/21 09:13:10;;;;;;;4.70;2.25;;;24.00;78.10;;;;;;5118083;28;20031;-82
2021/08/21 09:15:39;;;;;;;3.35;2.20;;;24.10;78.00;;;;;;5118550;28;20293;-82
2021/08/21 09:18:11;;;;;;;3.13;2.35;;;24.20;78.00;;;;;;5118004;28;20093;-82
2021/08/21 09:20:49;;;;;;;;;;;24.30;77.00;;;;;;5117296;28;20114;-83
2021/08/21 09:23:37;;;;;;;2.45;2.22;;;24.30;77.30;;;;;;5118311;28;20037;-83
2021/08/21 09:26:13;;;;;;;3.30;2.22;;;24.40;76.70;;;;;;5116724;28;20409;-82
2021/08/21 09:28:41;;;;;;;4.03;2.90;;;24.50;76.90;;;;;;5119326;28;20035;-83
2021/08/21 09:31:12;;;;;;;5.97;2.17;;;24.60;77.10;;;;;;5118824;28;20054;-83
2021/08/21 09:33:50;;;;;;;5.05;2.53;;;24.70;76.60;;;;;;5117195;28;20035;-83
2021/08/21 09:36:32;;;;;;;4.20;2.47;;;24.90;75.80;;;;;;5117187;28;20301;-83
2021/08/21 09:39:00;;;;;;;3.42;2.10;;;24.90;77.10;;;;;;5117629;28;20067;-83
2021/08/21 09:41:26;;;;;;;2.53;2.17;;;25.00;78.70;;;;;;5116559;28;20593;-84
2021/08/21 09:44:06;;;;;;;3.45;2.03;;;25.20;75.80;;;;;;5117948;28;20059;-83
2021/08/21 09:46:32;;;;;;;3.13;2.33;;;25.30;74.70;;;;;;5116552;28;20188;-83
2021/08/21 09:49:07;;;;;;;3.35;2.38;;;25.40;75.00;;;;;;5117343;28;20684;-83
2021/08/21 09:51:42;;;;;;;3.40;2.50;;;25.40;75.60;;;;;;5116783;28;20035;-84
2021/08/21 09:54:15;;;;;;;2.40;1.85;;;25.50;73.90;;;;;;5117103;28;20317;-84
2021/08/21 09:56:43;;;;;;;2.50;2.10;;;25.60;74.10;;;;;;5117000;28;20047;-84
2021/08/21 09:59:09;;;;;;;3.20;2.45;;;25.70;73.00;;;;;;5116588;28;20040;-83
2021/08/21 10:01:35;;;;;;;4.18;2.45;;;25.70;73.40;;;;;;5116270;28;20420;-83
2021/08/21 10:04:03;;;;;;;5.18;2.72;;;25.70;74.10;;;;;;5118161;28;20039;-84
2021/08/21 10:06:28;;;;;;;2.97;2.67;;;25.70;72.70;;;;;;5116919;28;20262;-83
2021/08/21 10:09:02;;;;;;;3.10;2.38;;;25.80;73.10;;;;;;5117143;28;20372;-85
2021/08/21 10:11:28;;;;;;;3.13;2.67;;;25.80;73.20;;;;;;5116326;28;20482;-84
2021/08/21 10:13:55;;;;;;;7.57;2.67;;;25.90;77.20;;;;;;5116972;28;20031;-84
2021/08/21 10:16:22;;;;;;;2.45;2.25;;;26.00;72.40;;;;;;5116821;28;20031;-84
2021/08/21 10:18:48;;;;;;;3.58;2.63;;;26.10;74.30;;;;;;5117050;28;20483;-84
2021/08/21 10:21:15;;;;;;;2.53;2.25;;;26.30;73.00;;;;;;5115616;28;20122;-85
2021/08/21 10:23:44;;;;;;;3.08;2.20;;;26.40;73.80;;;;;;5117211;28;20042;-85
2021/08/21 10:26:43;;;;;;;2.65;2.15;;;26.50;73.90;;;;;;5115646;28;20043;-84
2021/08/21 10:29:11;;;;;;;3.00;2.15;;;26.70;72.10;;;;;;5115972;28;20039;-85
2021/08/21 10:31:38;;;;;;;3.85;2.00;;;26.80;74.10;;;;;;5116366;28;20035;-84
2021/08/21 10:34:08;;;;;;;3.25;2.40;;;26.90;72.20;;;;;;5116901;28;20053;-85
2021/08/21 10:36:39;;;;;;;3.47;2.05;;;27.10;69.60;;;;;;5115700;28;20379;-85
2021/08/21 10:39:24;;;;;;;2.53;2.00;;;27.10;69.50;;;;;;5120941;28;20126;-86
2021/08/21 10:41:52;;;;;;;4.47;2.60;;;27.20;71.20;;;;;;5118103;28;20401;-84
2021/08/21 10:44:41;;;;;;;3.25;2.53;;;27.20;71.10;;;;;;5116303;28;20042;-84
2021/08/21 10:47:08;;;;;;;2.10;1.90;;;27.20;71.00;;;;;;5115683;28;20048;-85
2021/08/21 10:49:43;;;;;;;4.82;2.70;;;27.40;71.10;;;;;;5116139;28;20086;-84
2021/08/21 10:52:48;;;;;;;3.13;2.80;;;27.50;68.00;;;;;;5116346;28;20043;-85
2021/08/21 10:55:17;;;;;;;2.47;2.10;;;27.50;69.60;;;;;;5116179;28;20035;-85
2021/08/21 10:58:10;;;;;;;2.90;2.20;;;27.50;69.30;;;;;;5116815;28;20051;-84
2021/08/21 11:00:39;;;;;;;4.72;2.47;;;27.70;71.40;;;;;;5115405;28;20051;-85
2021/08/21 11:03:13;;;;;;;4.65;2.05;;;27.80;67.60;;;;;;5115833;28;20047;-85
2021/08/21 11:06:00;;;;;;;2.97;2.00;;;28.00;67.40;;;;;;5115377;28;20341;-85
2021/08/21 11:08:28;;;;;;;6.10;2.00;;;28.20;68.30;;;;;;5115765;28;20042;-86
2021/08/21 11:11:15;;;;;;;3.30;2.42;;;28.40;65.80;;;;;;5116370;28;20031;-85
2021/08/21 11:14:03;;;;;;;4.07;2.00;;;28.50;68.50;;;;;;5117101;28;20103;-85
2021/08/21 11:16:50;;;;;;;2.58;1.88;;;28.60;68.20;;;;;;5124778;28;20050;-85
2021/08/21 11:19:27;;;;;;;2.95;2.20;;;28.70;68.20;;;;;;5122606;28;20036;-85
2021/08/21 11:22:08;;;;;;;1.85;1.63;;;28.90;66.80;;;;;;5120634;28;20102;-84
2021/08/21 11:24:34;;;;;;;5.30;1.92;;;28.90;66.50;;;;;;5123609;28;20043;-84
2021/08/21 11:27:33;;;;;;;6.55;1.75;;;28.90;66.30;;;;;;5119573;28;20093;-85
2021/08/21 11:30:09;;;;;;;2.33;1.92;;;28.90;64.70;;;;;;5119665;28;20389;-84
2021/08/21 11:32:54;;;;;;;2.63;1.98;;;28.80;66.20;;;;;;5120330;28;20059;-85
2021/08/21 11:35:32;;;;;;;9.80;2.50;;;28.80;65.50;;;;;;5120212;27;20389;-84
2021/08/21 11:38:00;;;;;;;2.88;1.70;;;28.90;64.80;;;;;;5119785;28;20046;-84
2021/08/21 11:40:39;;;;;;;2.85;1.85;;;28.90;64.90;;;;;;5120097;28;20039;-84
2021/08/21 11:43:07;;;;;;;2.67;1.88;;;28.60;63.90;;;;;;5120105;28;20054;-85
2021/08/21 11:45:33;;;;;;;2.15;1.95;;;28.40;63.40;;;;;;5119024;28;20039;-84
2021/08/21 11:47:59;;;;;;;2.47;1.55;;;28.30;65.10;;;;;;5118704;28;20626;-85
2021/08/21 11:50:29;;;;;;;2.85;1.67;;;28.30;64.60;;;;;;5118758;28;20031;-85
2021/08/21 11:52:57;;;;;;;2.25;1.70;;;28.30;64.30;;;;;;5118965;28;20032;-85
2021/08/21 11:55:23;;;;;;;3.08;1.48;;;28.50;62.40;;;;;;5118877;28;20035;-84
2021/08/21 11:57:50;;;;;;;1.88;1.50;;;28.60;63.60;;;;;;5115582;28;20036;-84
2021/08/21 12:00:19;;;;;;;2.70;2.03;;;28.80;65.20;;;;;;5103143;28;20032;-84
2021/08/21 12:02:47;;;;;;;2.42;1.73;;;28.90;62.80;;;;;;5098657;28;20040;-84
2021/08/21 12:05:13;;;;;;;2.30;1.75;;;28.90;63.10;;;;;;5099072;28;20031;-84
2021/08/21 12:07:38;;;;;;;2.63;1.60;;;28.80;61.30;;;;;;5098155;28;20051;-85
2021/08/21 12:10:05;;;;;;;2.47;1.60;;;28.80;61.50;;;;;;5098440;28;20047;-84
2021/08/21 12:12:33;;;;;;;2.22;1.40;;;28.70;62.20;;;;;;5098977;28;20054;-84
2021/08/21 12:15:00;;;;;;;2.30;1.60;;;28.70;62.20;;;;;;5098955;28;20036;-84
2021/08/21 12:17:28;;;;;;;1.55;1.20;;;28.50;63.00;;;;;;5098904;28;20085;-84
2021/08/21 12:19:53;;;;;;;1.35;1.13;;;28.50;63.30;;;;;;5098414;28;20036;-83
2021/08/21 12:22:20;;;;;;;2.55;1.80;;;28.30;62.20;;;;;;5099079;28;20105;-85
2021/08/21 12:24:56;;;;;;;1.42;1.27;;;28.30;64.70;;;;;;5098591;28;20420;-85
2021/08/21 12:27:27;;;;;;;1.67;1.40;;;28.30;62.50;;;;;;5098279;28;20048;-85
2021/08/21 12:30:09;;;;;;;1.30;1.15;;;28.40;64.60;;;;;;5098564;28;20028;-85
2021/08/21 12:32:34;;;;;;;1.92;1.73;;;28.70;61.70;;;;;;5102908;28;20055;-86
2021/08/21 12:35:13;;;;;;;2.40;1.60;;;28.90;60.50;;;;;;5104223;28;20028;-85
2021/08/21 12:37:39;;;;;;;1.50;1.15;;;29.00;61.50;;;;;;5098758;28;20040;-85
2021/08/21 12:40:14;;;;;;;4.70;1.60;;;29.10;60.40;;;;;;5098736;28;20101;-85
2021/08/21 12:42:40;;;;;;;1.85;1.58;;;29.10;60.20;;;;;;5098374;28;20048;-85
2021/08/21 12:45:18;;;;;;;2.22;1.42;;;29.00;60.20;;;;;;5097590;28;20040;-84